Time;durP1;ratioP1;P1;durP2;ratioP2;P2;SDS_P1;SDS_P2;PMS_P1;PMS_P2;Temp;Humidity;BMP_temperature;BMP_pressure;BME280_temperature;BME280_humidity;BME280_pressure;Samples;Min_cycle;Max_cycle;Signal;HPM_P1;HPM_P2
2021/04/03 00:00:48;;;;;;;1.33;0.77;;;;;;;3.70;87.59;101093.56;4991820;28;20273;-73
2021/04/03 00:03:16;;;;;;;0.97;0.77;;;;;;;3.74;86.93;101097.38;5006023;28;20708;-72
2021/04/03 00:05:42;;;;;;;3.93;0.90;;;;;;;3.78;86.50;101086.94;4991853;28;20174;-72
2021/04/03 00:08:08;;;;;;;9.20;2.70;;;;;;;3.82;86.65;101077.25;4991826;28;20181;-72
2021/04/03 00:10:40;;;;;;;3.27;1.73;;;;;;;3.87;86.51;101093.50;4991647;28;20277;-72
2021/04/03 00:13:06;;;;;;;0.40;0.40;;;;;;;3.91;86.21;101091.97;4991525;28;20335;-72
2021/04/03 00:15:31;;;;;;;2.77;1.83;;;;;;;3.93;86.19;101091.72;4991741;28;20696;-72
2021/04/03 00:17:57;;;;;;;1.87;1.20;;;;;;;3.92;85.37;101095.47;4991582;28;20200;-73
2021/04/03 00:20:25;;;;;;;1.73;1.37;;;;;;;3.94;85.49;101096.03;4991915;28;20181;-72
2021/04/03 00:22:50;;;;;;;4.17;0.83;;;;;;;3.93;85.56;101091.72;4991327;28;20607;-72
2021/04/03 00:25:16;;;;;;;5.47;1.00;;;;;;;3.92;85.92;101096.31;4991774;28;20253;-73
2021/04/03 00:27:43;;;;;;;1.07;0.57;;;;;;;3.92;86.51;101090.91;4991513;28;20896;-73
2021/04/03 00:30:17;;;;;;;2.63;0.57;;;;;;;3.85;86.96;101091.06;4991347;28;20572;-73
2021/04/03 00:32:53;;;;;;;9.13;1.53;;;;;;;3.78;87.38;101084.22;4991388;28;20242;-73
2021/04/03 00:35:24;;;;;;;1.43;1.43;;;;;;;3.79;88.04;101092.06;4991731;28;20161;-73
2021/04/03 00:37:50;;;;;;;2.47;1.10;;;;;;;3.79;88.40;101086.66;4991443;28;20173;-73
2021/04/03 00:40:38;;;;;;;5.50;3.37;;;;;;;3.75;88.18;101084.69;4991329;28;20305;-72
2021/04/03 00:43:17;;;;;;;8.40;1.57;;;;;;;3.73;88.38;101082.25;4991133;28;20196;-72
2021/04/03 00:45:44;;;;;;;4.47;1.53;;;;;;;3.69;88.07;101077.59;4991245;28;20623;-73
2021/04/03 00:48:10;;;;;;;1.80;0.47;;;;;;;3.68;88.59;101078.66;4991263;28;20209;-73
2021/04/03 00:50:41;;;;;;;14.90;2.13;;;;;;;3.68;88.76;101082.19;4991033;28;20205;-72
2021/04/03 00:53:08;;;;;;;3.20;0.67;;;;;;;3.67;88.93;101082.44;5006110;28;20173;-73
2021/04/03 00:55:33;;;;;;;1.90;1.80;;;;;;;3.59;88.29;101079.09;4991219;28;20523;-73
2021/04/03 00:58:00;;;;;;;4.37;0.57;;;;;;;3.57;87.92;101085.81;4991184;28;20204;-73
2021/04/03 01:00:25;;;;;;;2.77;1.30;;;;;;;3.55;88.22;101088.78;4991233;28;20177;-73
2021/04/03 01:02:51;;;;;;;1.07;0.47;;;;;;;3.50;87.48;101088.72;4990825;28;20540;-73
2021/04/03 01:05:19;;;;;;;0.97;0.80;;;;;;;3.47;87.04;101089.22;4991761;28;20173;-72
2021/04/03 01:07:44;;;;;;;2.00;1.90;;;;;;;3.43;86.55;101092.63;4999126;28;20173;-73
2021/04/03 01:10:14;;;;;;;7.10;0.80;;;;;;;3.44;87.02;101102.38;4998155;28;20524;-72
2021/04/03 01:13:16;;;;;;;0.50;0.27;;;;;;;3.37;86.36;101096.34;4992671;28;20173;-72
2021/04/03 01:16:19;;;;;;;1.37;1.27;;;;;;;3.27;85.62;101094.28;4995570;28;20157;-72
2021/04/03 01:19:21;;;;;;;0.87;0.43;;;;;;;3.22;85.31;101096.94;4995542;28;20177;-72
2021/04/03 01:22:08;;;;;;;2.10;1.90;;;;;;;3.14;85.02;101095.44;4995225;28;20181;-73
2021/04/03 01:25:03;;;;;;;2.83;0.30;;;;;;;3.08;85.09;101101.00;4995005;28;20173;-72
2021/04/03 01:27:29;;;;;;;0.13;0.13;;;;;;;3.04;85.02;101105.25;4994801;28;20185;-72
2021/04/03 01:30:13;;;;;;;0.77;0.20;;;;;;;2.92;84.75;101098.06;4994994;28;20591;-72
2021/04/03 01:32:47;;;;;;;0.50;0.50;;;;;;;2.87;84.88;101108.75;4994872;28;20181;-72
2021/04/03 01:35:18;;;;;;;0.70;0.70;;;;;;;2.79;84.97;101109.16;4995209;28;20177;-72
2021/04/03 01:37:48;;;;;;;0.40;0.33;;;;;;;2.73;85.36;101104.72;4995312;28;20501;-72
2021/04/03 01:40:18;;;;;;;0.73;0.73;;;;;;;2.61;85.79;101098.59;4994592;28;20546;-72
2021/04/03 01:42:46;;;;;;;0.67;0.37;;;;;;;2.52;86.26;101111.66;4994437;28;20182;-72
2021/04/03 01:45:13;;;;;;;1.30;0.73;;;;;;;2.45;86.17;101110.97;4994953;28;20227;-72
2021/04/03 01:47:40;;;;;;;6.03;0.20;;;;;;;2.43;86.34;101104.19;4994585;28;20204;-73
2021/04/03 01:50:07;;;;;;;0.33;0.33;;;;;;;2.43;86.13;101105.00;4994571;28;20181;-72
2021/04/03 01:52:33;;;;;;;0.97;0.50;;;;;;;2.40;85.86;101105.50;4994259;28;20173;-72
2021/04/03 01:55:06;;;;;;;0.80;0.80;;;;;;;2.38;86.18;101111.13;4994485;28;20563;-72
2021/04/03 01:57:34;;;;;;;0.80;0.80;;;;;;;2.37;86.22;101100.59;4994535;28;20181;-72
2021/04/03 02:00:03;;;;;;;0.90;0.70;;;;;;;2.37;86.44;101100.59;4994343;28;20192;-72
2021/04/03 02:02:29;;;;;;;2.67;1.23;;;;;;;2.39;86.09;101115.44;4993839;28;20209;-72
2021/04/03 02:04:55;;;;;;;7.10;0.77;;;;;;;2.45;85.65;101104.75;4994261;28;20216;-72
2021/04/03 02:07:23;;;;;;;0.73;0.70;;;;;;;2.51;85.38;101118.09;4994150;28;20640;-72
2021/04/03 02:09:50;;;;;;;0.63;0.63;;;;;;;2.54;85.46;101116.81;4994212;28;20201;-72
2021/04/03 02:12:17;;;;;;;0.37;0.37;;;;;;;2.57;85.39;101121.72;4993974;28;20650;-72
2021/04/03 02:14:46;;;;;;;0.07;0.07;;;;;;;2.56;85.18;101118.19;4994427;28;20192;-73
2021/04/03 02:17:13;;;;;;;6.73;1.80;;;;;;;2.56;85.30;101120.06;4993852;28;20181;-72
2021/04/03 02:19:40;;;;;;;2.23;0.83;;;;;;;2.57;85.27;101119.00;4993997;28;20176;-72
2021/04/03 02:22:05;;;;;;;0.50;0.40;;;;;;;2.59;85.37;101120.41;4993904;28;20185;-72
2021/04/03 02:24:31;;;;;;;0.67;0.50;;;;;;;2.60;84.91;101119.38;4993189;28;20826;-72
2021/04/03 02:26:57;;;;;;;1.27;0.40;;;;;;;2.59;84.75;101111.50;4993882;28;20189;-72
2021/04/03 02:29:22;;;;;;;1.00;0.60;;;;;;;2.63;85.06;101113.47;4993792;28;20184;-72
2021/04/03 02:31:48;;;;;;;0.80;0.80;;;;;;;2.63;84.54;101112.66;4993568;28;20208;-72
2021/04/03 02:34:14;;;;;;;0.37;0.37;;;;;;;2.63;84.22;101115.38;4993691;28;20169;-72
2021/04/03 02:36:39;;;;;;;2.43;0.77;;;;;;;2.61;84.10;101118.31;4993830;28;20192;-72
2021/04/03 02:39:05;;;;;;;0.10;0.10;;;;;;;2.59;84.31;101128.50;4993494;28;20655;-72
2021/04/03 02:41:41;;;;;;;0.10;0.10;;;;;;;2.61;84.04;101125.56;4993663;28;20173;-72
2021/04/03 02:44:17;;;;;;;0.00;0.00;;;;;;;2.60;83.33;101118.53;4993340;28;20177;-72
2021/04/03 02:47:05;;;;;;;1.00;0.73;;;;;;;2.61;83.88;101129.09;5025094;28;20633;-72
2021/04/03 02:49:43;;;;;;;0.30;0.30;;;;;;;2.62;83.49;101129.91;4993397;28;20595;-72
2021/04/03 02:52:12;;;;;;;0.37;0.37;;;;;;;2.64;83.86;101138.56;4991933;28;20216;-72
2021/04/03 02:54:41;;;;;;;0.27;0.27;;;;;;;2.66;83.52;101147.25;4993283;28;20227;-72
2021/04/03 02:57:08;;;;;;;0.87;0.40;;;;;;;2.64;83.68;101139.41;4993430;28;20188;-72
2021/04/03 02:59:36;;;;;;;0.00;0.00;;;;;;;2.61;83.60;101131.78;4993284;28;20560;-72
2021/04/03 03:02:03;;;;;;;1.23;0.40;;;;;;;2.58;83.46;101129.56;4992928;28;20181;-72
2021/04/03 03:04:29;;;;;;;0.00;0.00;;;;;;;2.58;83.81;101134.13;4993091;28;20181;-72
2021/04/03 03:06:57;;;;;;;4.37;1.43;;;;;;;2.58;83.73;101134.13;4993252;28;20211;-72
2021/04/03 03:09:24;;;;;;;0.40;0.10;;;;;;;2.59;83.64;101147.38;4993419;28;20536;-73
2021/04/03 03:11:54;;;;;;;0.80;0.30;;;;;;;2.60;84.03;101153.59;4992819;28;20209;-72
2021/04/03 03:14:22;;;;;;;30.03;1.27;;;;;;;2.58;84.13;101143.03;4992962;28;20228;-72
2021/04/03 03:16:50;;;;;;;1.43;1.07;;;;;;;2.57;84.38;101141.41;4991841;28;20174;-72
2021/04/03 03:19:17;;;;;;;0.87;0.17;;;;;;;2.57;84.38;101133.31;4991530;28;20178;-72
2021/04/03 03:21:43;;;;;;;0.20;0.20;;;;;;;2.55;84.20;101142.72;4992773;28;20209;-72
2021/04/03 03:24:10;;;;;;;14.00;0.70;;;;;;;2.51;84.47;101138.88;4992655;28;20204;-72
2021/04/03 03:26:38;;;;;;;1.30;0.30;;;;;;;2.51;84.65;101144.25;4992638;28;20192;-73
2021/04/03 03:29:06;;;;;;;0.33;0.27;;;;;;;2.50;84.84;101148.84;4992698;28;20181;-72
2021/04/03 03:31:32;;;;;;;0.43;0.43;;;;;;;2.51;85.36;101138.88;4992348;28;20232;-72
2021/04/03 03:33:58;;;;;;;0.00;0.00;;;;;;;2.54;85.44;101133.81;4992505;28;20181;-72
2021/04/03 03:36:26;;;;;;;3.40;1.70;;;;;;;2.55;85.72;101134.63;4991679;28;20239;-72
2021/04/03 03:38:52;;;;;;;0.23;0.23;;;;;;;2.61;86.10;101144.47;4992280;28;20177;-72
2021/04/03 03:41:18;;;;;;;1.30;1.27;;;;;;;2.65;86.38;101126.72;4991168;28;20208;-72
2021/04/03 03:43:45;;;;;;;5.67;3.70;;;;;;;2.68;86.76;101140.53;4992237;28;20180;-72
2021/04/03 03:46:10;;;;;;;11.80;2.77;;;;;;;2.73;86.59;101141.69;5023850;28;20184;-73
2021/04/03 03:48:36;;;;;;;24.53;1.17;;;;;;;2.74;86.33;101140.63;4992295;28;20559;-72
2021/04/03 03:51:01;;;;;;;7.83;0.30;;;;;;;2.71;86.48;101141.94;4992267;28;20193;-72
2021/04/03 03:53:27;;;;;;;0.00;0.00;;;;;;;2.74;86.74;101146.00;4992245;28;20172;-72
2021/04/03 03:55:55;;;;;;;1.23;0.60;;;;;;;2.74;86.70;101136.03;4992220;28;20181;-72
2021/04/03 03:58:21;;;;;;;1.10;0.53;;;;;;;2.78;86.92;101139.91;4992181;28;20224;-72
2021/04/03 04:00:46;;;;;;;0.23;0.20;;;;;;;2.78;87.27;101134.53;4992035;28;20184;-72
2021/04/03 04:03:12;;;;;;;1.67;1.60;;;;;;;2.77;87.04;101134.75;4992000;28;20174;-72
2021/04/03 04:05:37;;;;;;;0.60;0.10;;;;;;;2.75;87.45;101137.72;4992020;28;20189;-73
2021/04/03 04:08:03;;;;;;;1.30;1.30;;;;;;;2.75;87.45;101135.00;4991852;28;20260;-72
2021/04/03 04:10:28;;;;;;;1.87;1.80;;;;;;;2.76;87.91;101139.34;4991842;28;20220;-72
2021/04/03 04:12:53;;;;;;;4.57;0.67;;;;;;;2.78;88.09;101137.22;4991618;28;20181;-73
2021/04/03 04:15:19;;;;;;;1.07;0.50;;;;;;;2.79;88.52;101152.34;4991797;28;20212;-72
2021/04/03 04:17:44;;;;;;;2.90;1.13;;;;;;;2.81;88.42;101152.91;4990726;28;20173;-72
2021/04/03 04:20:10;;;;;;;1.17;0.30;;;;;;;2.83;88.39;101142.69;4991489;28;20181;-73
2021/04/03 04:22:36;;;;;;;2.67;1.47;;;;;;;2.87;88.75;101153.81;4991655;28;20184;-72
2021/04/03 04:25:01;;;;;;;4.33;1.00;;;;;;;2.90;88.70;101156.88;4991652;28;20173;-72
2021/04/03 04:27:27;;;;;;;2.53;1.30;;;;;;;2.92;88.53;101157.44;4991450;28;20177;-73
2021/04/03 04:29:52;;;;;;;6.13;0.77;;;;;;;2.94;88.62;101165.28;4991677;28;20189;-72
2021/04/03 04:32:17;;;;;;;16.40;2.07;;;;;;;2.98;88.99;101161.84;4991426;28;20204;-73
2021/04/03 04:34:43;;;;;;;2.63;0.80;;;;;;;3.00;89.03;101164.31;4991481;28;20181;-72
2021/04/03 04:37:08;;;;;;;0.67;0.67;;;;;;;3.02;89.40;101164.06;4991516;28;20177;-72
2021/04/03 04:39:33;;;;;;;5.60;0.70;;;;;;;2.98;89.36;101169.94;4991357;28;20189;-72
2021/04/03 04:41:59;;;;;;;0.30;0.30;;;;;;;2.99;89.36;101179.69;4991238;28;20189;-72
2021/04/03 04:44:24;;;;;;;0.67;0.37;;;;;;;3.00;89.84;101185.91;4991425;28;20204;-71
2021/04/03 04:46:49;;;;;;;0.10;0.10;;;;;;;2.99;89.82;101190.47;4991316;28;20177;-73
2021/04/03 04:49:15;;;;;;;1.33;1.23;;;;;;;3.00;89.88;101194.00;4990991;28;20260;-73
2021/04/03 04:51:40;;;;;;;1.97;1.77;;;;;;;3.02;90.02;101196.44;4991130;28;20232;-73
2021/04/03 04:54:05;;;;;;;2.40;1.37;;;;;;;2.99;90.20;101200.47;5006312;28;20185;-73
2021/04/03 04:56:31;;;;;;;0.00;0.00;;;;;;;2.99;90.34;101206.66;4991240;28;20173;-73
2021/04/03 04:58:56;;;;;;;11.67;2.43;;;;;;;2.97;90.23;101208.78;4991195;28;20260;-73
2021/04/03 05:01:22;;;;;;;1.53;1.47;;;;;;;2.95;90.16;101205.53;4991280;28;20193;-73
2021/04/03 05:03:48;;;;;;;1.27;1.17;;;;;;;2.99;90.46;101213.94;4991052;28;20169;-73
2021/04/03 05:06:13;;;;;;;4.50;3.97;;;;;;;2.95;90.40;101224.41;4991188;28;20177;-73
2021/04/03 05:08:38;;;;;;;2.60;2.40;;;;;;;2.98;90.66;101232.03;4991084;28;20201;-74
2021/04/03 05:11:04;;;;;;;6.50;1.60;;;;;;;3.01;90.70;101235.31;4991248;28;20201;-74
2021/04/03 05:13:29;;;;;;;0.50;0.50;;;;;;;3.05;90.89;101222.97;4991013;28;20177;-74
2021/04/03 05:15:55;;;;;;;0.20;0.20;;;;;;;3.05;90.95;101225.69;4991049;28;20181;-73
2021/04/03 05:18:21;;;;;;;0.00;0.00;;;;;;;3.03;90.95;101233.16;4991156;28;20216;-74
2021/04/03 05:20:46;;;;;;;1.57;0.73;;;;;;;3.02;90.82;101232.34;4990936;28;20292;-74
2021/04/03 05:23:11;;;;;;;1.40;1.40;;;;;;;3.05;91.06;101242.69;4990885;28;20185;-74
2021/04/03 05:25:37;;;;;;;9.23;1.50;;;;;;;3.08;90.93;101244.09;4991274;28;20256;-73
2021/04/03 05:28:02;;;;;;;3.17;2.10;;;;;;;3.12;91.21;101250.63;4991032;28;20181;-74
2021/04/03 05:30:27;;;;;;;11.17;2.57;;;;;;;3.15;91.08;101260.94;4990970;28;20283;-73
2021/04/03 05:32:53;;;;;;;0.30;0.30;;;;;;;3.15;90.76;101266.34;4991007;28;20653;-73
2021/04/03 05:35:18;;;;;;;1.97;1.73;;;;;;;3.14;90.87;101259.31;4990982;28;20264;-73
2021/04/03 05:37:45;;;;;;;11.27;3.47;;;;;;;3.17;91.00;101273.13;4990901;28;20580;-73
2021/04/03 05:40:11;;;;;;;1.17;1.17;;;;;;;3.19;90.97;101270.22;4990778;28;20191;-74
2021/04/03 05:42:38;;;;;;;2.70;1.00;;;;;;;3.20;91.02;101272.66;4990629;28;20208;-73
2021/04/03 05:45:05;;;;;;;2.00;0.60;;;;;;;3.24;91.04;101281.09;4990830;28;20177;-74
2021/04/03 05:47:34;;;;;;;8.67;2.17;;;;;;;3.26;90.93;101276.28;4990798;28;20177;-73
2021/04/03 05:50:03;;;;;;;8.43;1.93;;;;;;;3.24;91.17;101278.41;4990835;28;20192;-74
2021/04/03 05:52:28;;;;;;;1.33;1.23;;;;;;;3.28;90.99;101280.38;4990493;28;20209;-71
2021/04/03 05:54:54;;;;;;;4.63;2.63;;;;;;;3.32;91.48;101291.50;4990885;28;20208;-71
2021/04/03 05:57:22;;;;;;;8.47;2.93;;;;;;;3.40;91.25;101293.00;4990939;28;20177;-73
2021/04/03 05:59:48;;;;;;;2.00;1.90;;;;;;;3.46;91.15;101297.41;4991332;28;20173;-71
2021/04/03 06:02:14;;;;;;;2.67;2.13;;;;;;;3.49;90.95;101288.84;4994097;28;20227;-71
2021/04/03 06:04:39;;;;;;;1.80;1.63;;;;;;;3.47;90.66;101291.81;4993879;28;20174;-71
2021/04/03 06:07:05;;;;;;;0.90;0.83;;;;;;;3.55;90.67;101307.59;5009332;28;20207;-72
2021/04/03 06:09:30;;;;;;;1.23;0.90;;;;;;;3.56;90.53;101303.81;4994095;28;20212;-72
2021/04/03 06:11:56;;;;;;;6.87;2.23;;;;;;;3.66;90.27;101307.78;4994018;28;20213;-71
2021/04/03 06:14:21;;;;;;;0.57;0.57;;;;;;;3.69;90.52;101313.50;4994360;28;20201;-71
2021/04/03 06:16:51;;;;;;;3.83;3.47;;;;;;;3.67;89.95;101317.53;4993982;28;20641;-71
2021/04/03 06:19:18;;;;;;;10.43;2.20;;;;;;;3.69;89.81;101316.22;4992696;28;20185;-71
2021/04/03 06:21:48;;;;;;;14.80;2.57;;;;;;;3.66;89.97;101324.00;4993840;28;20543;-72
2021/04/03 06:24:34;;;;;;;6.90;2.60;;;;;;;3.79;89.73;101320.97;4994031;28;20200;-72
2021/04/03 06:27:02;;;;;;;4.07;1.73;;;;;;;3.87;89.53;101325.97;4992497;28;20177;-71
2021/04/03 06:29:30;;;;;;;0.70;0.63;;;;;;;3.88;89.26;101327.59;4993605;28;20232;-72
2021/04/03 06:31:58;;;;;;;7.03;3.00;;;;;;;3.88;88.90;101328.41;4993422;28;20213;-72
2021/04/03 06:34:32;;;;;;;25.47;4.23;;;;;;;3.82;88.51;101334.81;4993611;28;20173;-72
2021/04/03 06:36:59;;;;;;;1.13;1.13;;;;;;;3.76;88.54;101338.50;4993596;28;20179;-72
2021/04/03 06:39:25;;;;;;;8.57;3.00;;;;;;;3.78;88.95;101332.84;4993802;28;20231;-72
2021/04/03 06:41:51;;;;;;;7.80;3.97;;;;;;;3.82;88.88;101347.50;4993207;28;20208;-72
2021/04/03 06:44:16;;;;;;;13.90;3.10;;;;;;;3.84;88.67;101339.97;4993566;28;20486;-72
2021/04/03 06:46:44;;;;;;;26.47;2.70;;;;;;;3.89;88.27;101340.88;4993706;28;20181;-72
2021/04/03 06:49:10;;;;;;;6.13;3.70;;;;;;;3.86;88.28;101340.53;4993396;28;20174;-72
2021/04/03 06:51:36;;;;;;;4.10;1.57;;;;;;;3.91;87.98;101348.75;4993252;28;20296;-72
2021/04/03 06:54:03;;;;;;;7.33;2.53;;;;;;;3.96;87.98;101348.84;4993476;28;20239;-72
2021/04/03 06:56:31;;;;;;;4.57;2.47;;;;;;;4.08;87.92;101349.56;4991586;28;20672;-72
2021/04/03 06:59:04;;;;;;;0.73;0.50;;;;;;;4.08;87.59;101360.41;4992186;28;20193;-71
2021/04/03 07:01:41;;;;;;;1.90;1.73;;;;;;;4.10;87.36;101365.56;4993084;28;20479;-72
2021/04/03 07:04:22;;;;;;;1.40;1.30;;;;;;;4.13;87.21;101362.34;4992756;28;20188;-71
2021/04/03 07:06:50;;;;;;;7.10;4.17;;;;;;;4.20;87.24;101367.63;4993257;28;20581;-71
2021/04/03 07:09:17;;;;;;;2.07;1.83;;;;;;;4.27;86.90;101362.84;4992993;28;20265;-71
2021/04/03 07:11:43;;;;;;;10.83;3.70;;;;;;;4.26;86.82;101374.72;4992740;28;20204;-71
2021/04/03 07:14:09;;;;;;;8.43;3.37;;;;;;;4.30;86.67;101381.28;4992794;28;20531;-71
2021/04/03 07:16:36;;;;;;;9.73;3.30;;;;;;;4.26;86.38;101386.38;4993218;28;20256;-71
2021/04/03 07:19:04;;;;;;;9.63;2.73;;;;;;;4.30;85.98;101392.09;4992847;28;20177;-71
2021/04/03 07:21:30;;;;;;;9.27;2.70;;;;;;;4.24;86.01;101390.38;4992914;28;20185;-71
2021/04/03 07:23:59;;;;;;;1.63;1.53;;;;;;;4.34;86.56;101391.38;4992670;28;20184;-71
2021/04/03 07:26:25;;;;;;;5.53;3.20;;;;;;;4.37;86.15;101390.06;4992597;28;20173;-71
2021/04/03 07:28:50;;;;;;;12.93;2.03;;;;;;;4.37;85.65;101401.69;4991793;28;20185;-71
2021/04/03 07:31:39;;;;;;;2.63;2.47;;;;;;;4.40;85.96;101393.09;4992408;28;20216;-72
2021/04/03 07:34:05;;;;;;;0.97;0.97;;;;;;;4.41;85.79;101397.44;4975465;28;20901;-71
2021/04/03 07:36:36;;;;;;;1.40;1.30;;;;;;;4.44;85.89;101401.53;4992989;28;20227;-71
2021/04/03 07:39:04;;;;;;;19.13;6.63;;;;;;;4.49;85.77;101398.91;5002473;28;20586;-72
2021/04/03 07:41:38;;;;;;;13.73;3.33;;;;;;;4.64;86.10;101406.44;4996549;28;20165;-71
2021/04/03 07:44:12;;;;;;;6.57;2.77;;;;;;;4.54;84.81;101412.50;4992686;28;20184;-72
2021/04/03 07:46:46;;;;;;;8.13;3.30;;;;;;;4.51;84.55;101417.59;4992412;28;20208;-71
2021/04/03 07:49:31;;;;;;;2.77;2.57;;;;;;;4.61;84.91;101413.16;4992496;28;20197;-71
2021/04/03 07:51:56;;;;;;;1.70;0.73;;;;;;;4.74;83.69;101412.81;4992241;28;20247;-71
2021/04/03 07:54:24;;;;;;;8.90;4.10;;;;;;;4.73;83.53;101413.88;4992316;28;20201;-71
2021/04/03 07:56:52;;;;;;;9.57;1.70;;;;;;;4.73;83.22;101413.06;4992065;28;20476;-71
2021/04/03 07:59:18;;;;;;;5.13;3.37;;;;;;;4.82;83.44;101418.88;4992180;28;20173;-72
2021/04/03 08:01:47;;;;;;;5.33;1.73;;;;;;;4.94;83.15;101422.31;4992136;28;20184;-72
2021/04/03 08:04:13;;;;;;;1.20;1.13;;;;;;;4.91;81.32;101429.00;4991832;28;20181;-71
2021/04/03 08:06:40;;;;;;;1.53;1.00;;;;;;;4.98;82.42;101423.44;4991836;28;20192;-71
2021/04/03 08:09:14;;;;;;;3.40;3.17;;;;;;;5.13;83.91;101429.06;4991975;28;20256;-72
2021/04/03 08:11:41;;;;;;;0.33;0.33;;;;;;;5.32;83.09;101418.72;4991909;28;20305;-71
2021/04/03 08:14:13;;;;;;;0.80;0.80;;;;;;;5.34;82.75;101416.56;4991854;28;20193;-72
2021/04/03 08:16:39;;;;;;;4.20;3.57;;;;;;;5.42;82.69;101418.84;4991802;28;20177;-71
2021/04/03 08:19:05;;;;;;;2.03;1.77;;;;;;;5.61;82.11;101416.63;4991653;28;20206;-71
2021/04/03 08:21:41;;;;;;;3.80;2.43;;;;;;;5.83;81.15;101424.72;4992192;28;20671;-72
2021/04/03 08:24:07;;;;;;;1.07;1.07;;;;;;;5.68;80.18;101423.50;4994802;28;20172;-72
2021/04/03 08:26:42;;;;;;;1.37;1.27;;;;;;;5.72;80.42;101423.78;4997141;28;20204;-70
2021/04/03 08:29:19;;;;;;;7.23;2.93;;;;;;;5.50;80.34;101429.25;4992005;28;20175;-72
2021/04/03 08:31:48;;;;;;;5.13;3.03;;;;;;;5.68;81.40;101425.38;4991573;28;20283;-72
2021/04/03 08:34:13;;;;;;;0.60;0.60;;;;;;;5.68;79.63;101425.38;4991754;28;20177;-72
2021/04/03 08:36:39;;;;;;;4.33;2.80;;;;;;;5.63;78.42;101426.13;4991907;28;20177;-72
2021/04/03 08:39:07;;;;;;;7.77;3.47;;;;;;;5.76;78.29;101418.66;4991290;28;20173;-73
2021/04/03 08:41:33;;;;;;;2.17;2.03;;;;;;;6.08;79.64;101422.31;4991394;28;20181;-74
2021/04/03 08:43:58;;;;;;;3.33;1.87;;;;;;;5.95;78.03;101426.25;4991354;28;20294;-73
2021/04/03 08:46:25;;;;;;;4.93;3.83;;;;;;;5.94;78.13;101423.78;4991354;28;20173;-74
2021/04/03 08:48:58;;;;;;;8.57;3.03;;;;;;;6.07;77.01;101422.53;4991549;28;20177;-74
2021/04/03 08:51:26;;;;;;;0.80;0.80;;;;;;;6.27;76.38;101420.03;4991223;28;20593;-74
2021/04/03 08:54:00;;;;;;;6.63;1.90;;;;;;;6.37;76.56;101422.81;4991234;28;20188;-74
2021/04/03 08:56:37;;;;;;;0.93;0.93;;;;;;;6.33;73.69;101435.25;4991304;28;20180;-74
2021/04/03 08:59:06;;;;;;;1.57;1.37;;;;;;;6.46;73.87;101421.25;5006138;28;20177;-73
2021/04/03 09:01:36;;;;;;;2.37;1.40;;;;;;;6.43;73.37;101423.69;4991001;28;20192;-73
2021/04/03 09:04:06;;;;;;;2.97;0.93;;;;;;;6.62;74.51;101418.66;4990545;28;20181;-74
2021/04/03 09:06:44;;;;;;;1.17;1.17;;;;;;;6.57;75.02;101422.16;4991472;28;20177;-73
2021/04/03 09:09:12;;;;;;;1.33;1.10;;;;;;;6.71;75.39;101417.91;4990832;28;20260;-73
2021/04/03 09:11:38;;;;;;;11.07;3.67;;;;;;;6.68;74.53;101410.28;4991011;28;20208;-74
2021/04/03 09:14:04;;;;;;;1.97;1.73;;;;;;;6.95;74.51;101403.94;4990646;28;20269;-74
2021/04/03 09:16:38;;;;;;;4.17;3.00;;;;;;;7.19;74.39;101412.47;4991300;28;20276;-74
2021/04/03 09:19:04;;;;;;;4.67;2.20;;;;;;;7.14;69.73;101402.41;4990968;28;20181;-73
2021/04/03 09:21:30;;;;;;;6.43;3.47;;;;;;;7.30;70.36;101406.00;4990762;28;20264;-73
2021/04/03 09:23:56;;;;;;;4.80;2.80;;;;;;;7.44;68.54;101410.66;4990689;28;20180;-73
2021/04/03 09:26:35;;;;;;;0.53;0.53;;;;;;;7.59;67.85;101409.09;4990915;28;20178;-74
2021/04/03 09:29:07;;;;;;;4.00;1.77;;;;;;;7.59;67.71;101398.22;4990798;28;20177;-73
2021/04/03 09:31:41;;;;;;;1.07;0.97;;;;;;;7.64;68.71;101406.38;4990685;28;20208;-73
2021/04/03 09:34:06;;;;;;;1.50;0.70;;;;;;;7.71;70.68;101399.59;4990595;28;20185;-73
2021/04/03 09:36:42;;;;;;;2.50;2.37;;;;;;;8.06;70.55;101398.00;4993827;28;20184;-74
2021/04/03 09:39:19;;;;;;;2.63;2.17;;;;;;;8.11;68.27;101398.03;4994421;28;20180;-74
2021/04/03 09:41:47;;;;;;;0.87;0.87;;;;;;;8.16;65.02;101402.66;4994833;28;20216;-74
2021/04/03 09:44:12;;;;;;;0.57;0.30;;;;;;;8.28;63.67;101390.41;4994165;28;20177;-74
2021/04/03 09:46:38;;;;;;;3.20;1.57;;;;;;;8.25;64.16;101396.41;4994446;28;20176;-74
2021/04/03 09:49:03;;;;;;;1.70;1.60;;;;;;;8.34;66.28;101400.22;4994225;28;20209;-73
2021/04/03 09:51:29;;;;;;;3.07;1.63;;;;;;;8.29;65.50;101411.09;5009460;28;20201;-73
2021/04/03 09:53:54;;;;;;;1.67;1.50;;;;;;;8.40;66.11;101398.34;5008867;28;20177;-72
2021/04/03 09:56:19;;;;;;;0.60;0.60;;;;;;;8.64;64.69;101398.56;4994068;28;20184;-72
2021/04/03 09:58:45;;;;;;;1.87;1.60;;;;;;;8.78;63.62;101391.47;4993836;28;20472;-72
2021/04/03 10:01:11;;;;;;;11.03;1.90;;;;;;;8.84;63.10;101404.00;4992530;28;20553;-73
2021/04/03 10:03:36;;;;;;;0.90;0.70;;;;;;;8.86;63.42;101396.34;4993707;28;20177;-73
2021/04/03 10:06:02;;;;;;;1.10;1.10;;;;;;;8.81;61.83;101390.91;4994138;28;20602;-73
2021/04/03 10:08:28;;;;;;;1.90;1.53;;;;;;;9.05;60.95;101395.75;4993683;28;20177;-72
2021/04/03 10:10:53;;;;;;;1.60;1.43;;;;;;;9.11;59.35;101400.94;4993598;28;20207;-73
2021/04/03 10:13:19;;;;;;;4.60;1.47;;;;;;;9.24;61.22;101392.13;4993566;28;20181;-73
2021/04/03 10:15:44;;;;;;;1.60;1.30;;;;;;;9.16;58.71;101386.44;4993881;28;20204;-72
2021/04/03 10:18:12;;;;;;;2.13;0.53;;;;;;;9.29;59.13;101390.50;4993621;28;20177;-72
2021/04/03 10:20:38;;;;;;;1.77;1.23;;;;;;;9.27;59.03;101373.59;4993623;28;20589;-73
2021/04/03 10:23:03;;;;;;;4.80;1.13;;;;;;;9.33;56.66;101392.38;4993511;28;20177;-73
2021/04/03 10:25:29;;;;;;;0.87;0.60;;;;;;;9.39;53.37;101385.78;4993851;28;20260;-72
2021/04/03 10:27:54;;;;;;;0.30;0.30;;;;;;;9.32;49.23;101393.47;5008389;28;20212;-72
2021/04/03 10:30:20;;;;;;;1.33;1.03;;;;;;;9.42;52.80;101382.53;4993717;28;20181;-73
2021/04/03 10:32:45;;;;;;;0.93;0.93;;;;;;;9.50;52.79;101395.56;4993347;28;20169;-73
2021/04/03 10:35:11;;;;;;;3.20;1.57;;;;;;;9.51;52.42;101394.47;4993366;28;20201;-73
2021/04/03 10:37:36;;;;;;;1.97;0.67;;;;;;;9.53;50.24;101389.53;4993314;28;20181;-73
2021/04/03 10:40:03;;;;;;;1.63;1.10;;;;;;;9.72;53.90;101399.81;4993081;28;20606;-73
2021/04/03 10:42:28;;;;;;;1.80;0.87;;;;;;;9.82;52.99;101403.28;4993185;28;20181;-72
2021/04/03 10:44:54;;;;;;;2.17;1.00;;;;;;;9.87;53.76;101397.00;4993357;28;20174;-73
2021/04/03 10:47:19;;;;;;;0.73;0.60;;;;;;;10.08;50.96;101382.09;5020978;28;20545;-73
2021/04/03 10:49:44;;;;;;;1.33;0.57;;;;;;;10.20;50.87;101391.84;5012869;28;20172;-73
2021/04/03 10:52:10;;;;;;;2.03;0.97;;;;;;;10.27;50.54;101393.19;5012468;28;20200;-72
2021/04/03 10:54:35;;;;;;;1.13;0.80;;;;;;;10.13;49.84;101383.97;5012515;28;20608;-73
2021/04/03 10:57:00;;;;;;;3.30;2.30;;;;;;;10.01;50.86;101391.72;5012635;28;20176;-73
2021/04/03 10:59:26;;;;;;;1.10;0.80;;;;;;;9.90;50.32;101390.16;5012642;28;20208;-73
2021/04/03 11:01:51;;;;;;;2.07;1.23;;;;;;;10.00;51.01;101388.16;5012596;28;20176;-73
2021/04/03 11:04:17;;;;;;;5.87;1.93;;;;;;;9.96;51.53;101397.19;5012250;28;20200;-72
2021/04/03 11:06:42;;;;;;;1.07;0.83;;;;;;;9.70;53.38;101396.56;5012479;28;20180;-72
2021/04/03 11:09:07;;;;;;;1.50;1.40;;;;;;;9.63;53.95;101396.03;5012520;28;20212;-72
2021/04/03 11:11:33;;;;;;;2.67;1.77;;;;;;;9.66;53.28;101396.28;5012283;28;20703;-71
2021/04/03 11:13:59;;;;;;;2.67;1.73;;;;;;;9.75;53.75;101401.97;5012291;28;20179;-72
2021/04/03 11:16:26;;;;;;;2.93;1.30;;;;;;;9.90;53.83;101398.34;5012426;28;20530;-72
2021/04/03 11:18:52;;;;;;;2.33;0.60;;;;;;;10.17;53.52;101392.41;5012559;28;20219;-72
2021/04/03 11:21:18;;;;;;;3.53;1.70;;;;;;;10.20;55.21;101403.56;5012147;28;20263;-72
2021/04/03 11:23:43;;;;;;;3.27;1.63;;;;;;;10.47;53.86;101399.56;5012337;28;20276;-72
2021/04/03 11:26:08;;;;;;;1.30;1.07;;;;;;;10.26;53.52;101388.78;5012259;28;20188;-72
2021/04/03 11:28:34;;;;;;;1.57;1.47;;;;;;;10.09;54.02;101402.00;5012317;28;20212;-72
2021/04/03 11:30:59;;;;;;;2.03;1.00;;;;;;;10.14;53.85;101391.88;5012147;28;20629;-72
2021/04/03 11:33:26;;;;;;;1.70;0.67;;;;;;;10.13;54.73;101390.25;5011835;28;20586;-72
2021/04/03 11:35:51;;;;;;;4.20;1.73;;;;;;;10.07;54.94;101383.19;5012067;28;20177;-72